createdAt,value
2023-04-05T00:01:12.216Z,4.55
2023-04-05T00:03:43.977Z,4.15
2023-04-05T00:06:16.659Z,4.85
2023-04-05T00:08:49.914Z,4.15
2023-04-05T00:11:22.824Z,3.78
2023-04-05T00:13:54.383Z,3.95
2023-04-05T00:16:27.622Z,4.17
2023-04-05T00:19:00.167Z,4.40
2023-04-05T00:21:32.981Z,3.88
2023-04-05T00:24:05.308Z,3.85
2023-04-05T00:26:36.947Z,3.53
2023-04-05T00:29:09.545Z,3.85
2023-04-05T00:31:41.146Z,4.10
2023-04-05T00:34:12.735Z,4.00
2023-04-05T00:36:44.242Z,3.60
2023-04-05T00:39:16.122Z,3.27
2023-04-05T00:41:48.730Z,3.80
2023-04-05T00:44:20.491Z,4.40
2023-04-05T00:46:52.275Z,4.57
2023-04-05T00:49:23.895Z,3.30
2023-04-05T00:51:57.459Z,3.95
2023-04-05T00:54:29.866Z,3.60
2023-04-05T00:59:32.822Z,3.10
2023-04-05T01:02:28.865Z,3.77
2023-04-05T01:05:09.802Z,3.45
2023-04-05T01:07:58.840Z,3.33
2023-04-05T01:10:35.675Z,3.40
2023-04-05T01:13:07.327Z,3.78
2023-04-05T01:15:38.818Z,3.47
2023-04-05T01:18:11.335Z,3.60
2023-04-05T01:20:55.060Z,3.30
2023-04-05T01:23:53.522Z,3.83
2023-04-05T01:26:55.081Z,2.92
2023-04-05T01:29:35.990Z,3.50
2023-04-05T01:32:37.852Z,3.50
2023-04-05T01:37:50.029Z,3.33
2023-04-05T01:40:22.920Z,3.17
2023-04-05T01:42:54.519Z,2.90
2023-04-05T01:45:26.530Z,3.10
2023-04-05T01:48:00.848Z,2.97
2023-04-05T01:50:32.451Z,2.83
2023-04-05T01:53:04.132Z,2.75
2023-04-05T01:55:35.926Z,3.30
2023-04-05T01:58:07.454Z,2.90
2023-04-05T02:00:39.383Z,3.50
2023-04-05T02:03:11.199Z,3.72
2023-04-05T02:05:42.776Z,3.35
2023-04-05T02:08:14.413Z,3.17
2023-04-05T02:10:47.150Z,2.53
2023-04-05T02:13:18.651Z,2.60
2023-04-05T02:15:50.817Z,2.73
2023-04-05T02:18:22.491Z,2.60
2023-04-05T02:20:54.175Z,2.65
2023-04-05T02:23:26.203Z,2.77
2023-04-05T02:25:58.689Z,2.83
2023-04-05T02:31:01.698Z,2.78
2023-04-05T02:33:33.575Z,2.23
2023-04-05T02:36:07.838Z,2.75
2023-04-05T02:38:39.450Z,2.90
2023-04-05T02:41:14.404Z,2.80
2023-04-05T02:43:46.455Z,2.22
2023-04-05T02:46:17.997Z,2.05
2023-04-05T02:48:49.555Z,2.33
2023-04-05T02:51:21.213Z,2.93
2023-04-05T02:53:53.077Z,2.20
2023-04-05T02:56:26.882Z,2.17
2023-04-05T02:58:58.406Z,2.72
2023-04-05T03:01:30.582Z,2.17
2023-04-05T03:04:02.949Z,2.83
2023-04-05T03:09:06.836Z,2.42
2023-04-05T03:14:12.127Z,2.42
2023-04-05T03:16:43.754Z,2.75
2023-04-05T03:19:17.097Z,2.40
2023-04-05T03:21:49.306Z,2.70
2023-04-05T03:24:21.303Z,2.70
2023-04-05T03:26:53.109Z,2.78
2023-04-05T03:29:24.975Z,2.42
2023-04-05T03:31:59.406Z,3.63
2023-04-05T03:34:30.934Z,2.72
2023-04-05T03:37:02.415Z,2.53
2023-04-05T03:39:33.844Z,2.43
2023-04-05T03:42:08.251Z,2.50
2023-04-05T03:44:39.761Z,2.70
2023-04-05T03:47:11.335Z,2.53
2023-04-05T03:49:42.827Z,2.65
2023-04-05T03:52:14.450Z,2.67
2023-04-05T03:54:46.078Z,2.90
2023-04-05T03:57:18.439Z,2.88
2023-04-05T03:59:50.742Z,2.60
2023-04-05T04:02:22.404Z,2.33
2023-04-05T04:04:54.130Z,2.92
2023-04-05T04:07:26.790Z,3.13
2023-04-05T04:09:58.277Z,2.47
2023-04-05T04:12:29.798Z,2.40
2023-04-05T04:15:01.619Z,3.07
2023-04-05T04:17:35.917Z,2.42
2023-04-05T04:20:11.223Z,2.78
2023-04-05T04:22:42.859Z,2.70
2023-04-05T04:25:14.709Z,3.03
2023-04-05T04:27:50.322Z,2.88
2023-04-05T04:30:22.636Z,2.78
2023-04-05T04:32:58.926Z,3.35
2023-04-05T04:35:34.926Z,2.78
2023-04-05T04:38:08.905Z,3.15
2023-04-05T04:40:41.174Z,2.92
2023-04-05T04:43:17.765Z,2.53
2023-04-05T04:45:52.020Z,3.28
2023-04-05T04:48:23.695Z,2.97
2023-04-05T04:50:58.716Z,3.58
2023-04-05T04:53:30.261Z,3.10
2023-04-05T04:56:01.736Z,3.00
2023-04-05T04:58:33.291Z,3.13
2023-04-05T05:01:09.827Z,3.03
2023-04-05T05:03:42.666Z,3.53
2023-04-05T05:06:17.549Z,3.08
2023-04-05T05:08:49.198Z,3.28
2023-04-05T05:11:20.864Z,3.35
2023-04-05T05:13:53.437Z,3.70
2023-04-05T05:16:25.246Z,2.72
2023-04-05T05:18:56.900Z,2.97
2023-04-05T05:21:28.435Z,2.78
2023-04-05T05:24:00.217Z,3.13
2023-04-05T05:26:31.790Z,3.42
2023-04-05T05:29:04.075Z,3.13
2023-04-05T05:31:36.523Z,3.95
2023-04-05T05:34:08.178Z,3.55
2023-04-05T05:36:39.682Z,4.70
2023-04-05T05:39:11.619Z,4.70
2023-04-05T05:41:44.563Z,3.60
2023-04-05T05:44:16.142Z,3.05
2023-04-05T05:46:47.712Z,3.10
2023-04-05T05:49:19.355Z,4.10
2023-04-05T05:51:52.595Z,4.93
2023-04-05T05:54:25.343Z,5.13
2023-04-05T05:56:56.966Z,4.55
2023-04-05T05:59:28.581Z,3.63
2023-04-05T06:02:00.160Z,3.63
2023-04-05T06:04:31.694Z,4.17
2023-04-05T06:07:04.111Z,3.23
2023-04-05T06:12:07.175Z,3.30
2023-04-05T06:14:38.877Z,4.05
2023-04-05T06:17:11.428Z,2.88
2023-04-05T06:19:42.975Z,2.90
2023-04-05T06:22:14.495Z,3.30
2023-04-05T06:24:46.011Z,3.37
2023-04-05T06:27:17.512Z,3.47
2023-04-05T06:29:48.934Z,2.67
2023-04-05T06:32:20.702Z,2.95
2023-04-05T06:34:53.545Z,3.17
2023-04-05T06:37:25.025Z,3.40
2023-04-05T06:39:56.741Z,3.87
2023-04-05T06:42:28.326Z,3.00
2023-04-05T06:44:59.928Z,2.90
2023-04-05T06:47:38.794Z,2.85
2023-04-05T06:50:10.623Z,2.58
2023-04-05T06:52:43.298Z,2.78
2023-04-05T06:55:17.910Z,3.35
2023-04-05T06:57:49.633Z,3.58
2023-04-05T07:00:21.376Z,3.33
2023-04-05T07:02:52.964Z,3.30
2023-04-05T07:05:24.520Z,2.93
2023-04-05T07:07:55.999Z,3.23
2023-04-05T07:10:27.495Z,3.67
2023-04-05T07:12:58.998Z,2.83
2023-04-05T07:15:30.649Z,3.17
2023-04-05T07:18:02.287Z,3.38
2023-04-05T07:20:34.110Z,3.58
2023-04-05T07:23:06.008Z,3.50
2023-04-05T07:25:40.488Z,3.55
2023-04-05T07:28:12.048Z,3.40
2023-04-05T07:30:43.894Z,2.87
2023-04-05T07:33:16.121Z,2.72
2023-04-05T07:35:53.413Z,2.78
2023-04-05T07:38:26.948Z,3.03
2023-04-05T07:40:58.732Z,3.30
2023-04-05T07:43:30.523Z,3.30
2023-04-05T07:46:04.134Z,2.83
2023-04-05T07:48:35.753Z,3.00
2023-04-05T07:51:08.540Z,3.00
2023-04-05T07:53:41.130Z,2.65
2023-04-05T07:56:16.222Z,2.95
2023-04-05T07:58:50.164Z,3.17
2023-04-05T08:01:23.785Z,2.10
2023-04-05T08:03:57.517Z,2.53
2023-04-05T08:06:31.013Z,2.72
2023-04-05T08:09:05.578Z,2.33
2023-04-05T08:11:37.876Z,2.45
2023-04-05T08:14:09.619Z,2.30
2023-04-05T08:16:41.256Z,2.17
2023-04-05T08:19:15.508Z,2.42
2023-04-05T08:21:47.204Z,2.60
2023-04-05T08:24:18.756Z,2.47
2023-04-05T08:26:50.412Z,2.97
2023-04-05T08:29:21.945Z,2.78
2023-04-05T08:31:57.743Z,2.57
2023-04-05T08:34:29.273Z,2.50
2023-04-05T08:37:00.850Z,2.77
2023-04-05T08:39:35.037Z,2.88
2023-04-05T08:42:16.769Z,2.40
2023-04-05T08:44:52.383Z,2.70
2023-04-05T08:47:25.696Z,3.10
2023-04-05T08:49:57.278Z,2.78
2023-04-05T08:52:31.393Z,3.50
2023-04-05T08:55:02.973Z,2.63
2023-04-05T08:57:39.245Z,2.80
2023-04-05T09:00:11.966Z,3.38
2023-04-05T09:02:49.061Z,2.70
2023-04-05T09:05:21.200Z,2.42
2023-04-05T09:07:53.024Z,2.72
2023-04-05T09:10:26.126Z,2.78
2023-04-05T09:13:00.553Z,2.78
2023-04-05T09:15:34.427Z,2.50
2023-04-05T09:18:15.448Z,2.47
2023-04-05T09:20:50.894Z,1.92
2023-04-05T09:23:22.448Z,2.43
2023-04-05T09:25:53.977Z,2.30
2023-04-05T09:28:41.448Z,1.93
2023-04-05T09:31:36.886Z,2.50
2023-04-05T09:34:08.881Z,1.92
2023-04-05T09:36:45.262Z,2.33
2023-04-05T09:39:21.547Z,2.22
2023-04-05T09:42:13.053Z,2.33
2023-04-05T09:45:02.659Z,1.90
2023-04-05T09:47:35.192Z,2.08
2023-04-05T09:50:15.580Z,2.40
2023-04-05T09:52:47.416Z,2.30
2023-04-05T09:55:27.978Z,1.92
2023-04-05T09:57:59.536Z,2.47
2023-04-05T10:00:34.254Z,2.40
2023-04-05T10:03:05.821Z,2.65
2023-04-05T10:05:38.624Z,2.10
2023-04-05T10:08:10.325Z,2.83
2023-04-05T10:10:47.685Z,2.17
2023-04-05T10:13:20.460Z,1.95
2023-04-05T10:15:57.176Z,2.63
2023-04-05T10:18:39.162Z,2.20
2023-04-05T10:21:13.079Z,2.38
2023-04-05T10:23:47.488Z,2.28
2023-04-05T10:26:37.110Z,2.08
2023-04-05T10:29:25.032Z,2.75
2023-04-05T10:32:11.690Z,2.22
2023-04-05T10:34:55.431Z,2.17
2023-04-05T10:37:43.028Z,2.22
2023-04-05T10:40:19.871Z,2.33
2023-04-05T10:42:51.467Z,2.22
2023-04-05T10:45:25.487Z,1.90
2023-04-05T10:48:11.194Z,2.22
2023-04-05T10:50:44.497Z,2.28
2023-04-05T10:53:16.995Z,2.08
2023-04-05T10:58:23.892Z,2.53
2023-04-05T11:00:56.252Z,3.33
2023-04-05T11:06:33.969Z,1.83
2023-04-05T11:09:20.394Z,2.30
2023-04-05T11:11:52.690Z,2.10
2023-04-05T11:14:37.548Z,2.58
2023-04-05T11:20:11.432Z,2.33
2023-04-05T11:22:54.335Z,2.20
2023-04-05T11:25:25.792Z,2.28
2023-04-05T11:28:01.151Z,2.40
2023-04-05T11:30:54.002Z,2.30
2023-04-05T11:33:47.691Z,2.45
2023-04-05T11:36:35.337Z,2.40
2023-04-05T11:39:19.135Z,2.30
2023-04-05T11:42:03.714Z,2.33
2023-04-05T11:44:46.241Z,2.13
2023-04-05T11:47:21.281Z,2.20
2023-04-05T11:49:53.056Z,2.17
2023-04-05T11:52:24.566Z,2.63
2023-04-05T11:54:56.032Z,2.83
2023-04-05T11:57:28.944Z,2.60
2023-04-05T12:00:00.464Z,2.75
2023-04-05T12:02:34.972Z,2.50
2023-04-05T12:05:07.064Z,2.03
2023-04-05T12:07:38.617Z,2.33
2023-04-05T12:10:13.950Z,2.60
2023-04-05T12:12:47.642Z,2.15
2023-04-05T12:15:19.415Z,2.67
2023-04-05T12:17:52.559Z,2.47
2023-04-05T12:20:26.139Z,2.70
2023-04-05T12:22:58.337Z,2.50
2023-04-05T12:25:30.393Z,2.50
2023-04-05T12:28:07.240Z,2.38
2023-04-05T12:30:49.526Z,3.08
2023-04-05T12:33:32.814Z,2.30
2023-04-05T12:36:06.137Z,2.85
2023-04-05T12:38:38.512Z,2.65
2023-04-05T12:41:10.320Z,2.20
2023-04-05T12:43:43.046Z,2.10
2023-04-05T12:46:18.550Z,2.70
2023-04-05T12:48:51.672Z,2.03
2023-04-05T12:51:24.407Z,2.10
2023-04-05T12:53:56.972Z,2.97
2023-04-05T12:56:32.560Z,2.33
2023-04-05T12:59:07.370Z,2.42
2023-04-05T13:01:39.251Z,2.25
2023-04-05T13:06:47.543Z,2.17
2023-04-05T13:09:19.259Z,2.67
2023-04-05T13:11:50.963Z,2.20
2023-04-05T13:14:22.479Z,2.40
2023-04-05T13:16:53.977Z,2.57
2023-04-05T13:19:25.718Z,2.33
2023-04-05T13:21:57.356Z,2.60
2023-04-05T13:24:28.825Z,2.15
2023-04-05T13:27:02.456Z,2.53
2023-04-05T13:29:33.982Z,2.80
2023-04-05T13:32:05.699Z,2.50
2023-04-05T13:34:37.202Z,2.85
2023-04-05T13:37:08.649Z,2.43
2023-04-05T13:39:40.200Z,2.87
2023-04-05T13:42:13.847Z,2.37
2023-04-05T13:44:45.522Z,2.63
2023-04-05T13:47:18.095Z,2.42
2023-04-05T13:49:49.881Z,2.92
2023-04-05T13:52:21.489Z,2.33
2023-04-05T13:55:02.143Z,2.30
2023-04-05T14:00:08.067Z,3.67
2023-04-05T14:02:40.369Z,2.50
2023-04-05T14:07:43.601Z,1.88
2023-04-05T14:10:15.354Z,3.03
2023-04-05T14:12:47.020Z,2.38
2023-04-05T14:17:50.032Z,2.58
2023-04-05T14:20:21.753Z,2.70
2023-04-05T14:22:53.245Z,2.35
2023-04-05T14:30:28.769Z,2.17
2023-04-05T14:33:00.618Z,2.08
2023-04-05T14:35:32.366Z,2.65
2023-04-05T14:38:03.865Z,2.50
2023-04-05T14:40:35.603Z,2.88
2023-04-05T14:43:07.196Z,2.70
2023-04-05T14:45:38.880Z,2.60
2023-04-05T14:48:10.633Z,2.25
2023-04-05T14:50:42.472Z,2.47
2023-04-05T14:53:14.167Z,2.47
2023-04-05T14:55:45.759Z,2.85
2023-04-05T14:58:17.478Z,3.08
2023-04-05T15:00:50.655Z,2.42
2023-04-05T15:03:22.864Z,2.25
2023-04-05T15:05:54.705Z,2.50
2023-04-05T15:08:26.369Z,2.60
2023-04-05T15:10:58.718Z,2.25
2023-04-05T15:13:30.371Z,2.30
2023-04-05T15:16:01.973Z,2.78
2023-04-05T15:18:33.541Z,2.33
2023-04-05T15:21:05.897Z,2.10
2023-04-05T15:23:37.536Z,2.33
2023-04-05T15:26:09.109Z,2.70
2023-04-05T15:28:40.638Z,2.40
2023-04-05T15:31:12.245Z,2.65
2023-04-05T15:33:43.798Z,2.20
2023-04-05T15:36:15.350Z,2.17
2023-04-05T15:38:47.440Z,2.00
2023-04-05T15:41:19.033Z,2.40
2023-04-05T15:43:50.729Z,2.10
2023-04-05T15:46:22.383Z,2.08
2023-04-05T15:48:54.146Z,2.30
2023-04-05T15:51:25.963Z,2.67
2023-04-05T15:53:57.556Z,3.42
2023-04-05T15:56:29.478Z,4.18
2023-04-05T15:59:01.213Z,2.80
2023-04-05T16:01:33.128Z,2.63
2023-04-05T16:04:05.360Z,2.53
2023-04-05T16:06:37.120Z,2.63
2023-04-05T16:09:08.624Z,2.38
2023-04-05T16:11:40.238Z,2.33
2023-04-05T16:14:12.499Z,2.35
2023-04-05T16:16:52.960Z,2.65
2023-04-05T16:19:26.532Z,3.58
2023-04-05T16:21:59.980Z,3.08
2023-04-05T16:24:33.149Z,3.00
2023-04-05T16:27:05.338Z,3.17
2023-04-05T16:29:36.942Z,2.60
2023-04-05T16:32:08.681Z,3.15
2023-04-05T16:34:40.372Z,2.80
2023-04-05T16:37:11.951Z,2.97
2023-04-05T16:39:43.570Z,2.50
2023-04-05T16:42:15.385Z,3.10
2023-04-05T16:44:47.013Z,2.67
2023-04-05T16:47:18.634Z,2.50
2023-04-05T16:49:51.108Z,2.88
2023-04-05T16:52:22.937Z,2.92
2023-04-05T16:54:57.338Z,2.80
2023-04-05T16:57:28.927Z,2.90
2023-04-05T17:00:00.563Z,2.72
2023-04-05T17:02:32.320Z,2.45
2023-04-05T17:05:04.431Z,2.22
2023-04-05T17:07:35.998Z,2.53
2023-04-05T17:10:08.308Z,2.75
2023-04-05T17:15:13.750Z,2.28
2023-04-05T17:17:45.463Z,2.25
2023-04-05T17:20:17.152Z,2.50
2023-04-05T17:22:50.155Z,2.05
2023-04-05T17:25:21.782Z,2.28
2023-04-05T17:27:53.344Z,1.90
2023-04-05T17:30:26.306Z,2.55
2023-04-05T17:32:57.994Z,2.78
2023-04-05T17:35:29.821Z,2.38
2023-04-05T17:38:03.419Z,2.33
2023-04-05T17:40:35.093Z,2.42
2023-04-05T17:43:06.730Z,2.40
2023-04-05T17:45:38.400Z,2.45
2023-04-05T17:48:10.103Z,2.75
2023-04-05T17:50:41.715Z,2.00
2023-04-05T17:53:16.581Z,2.63
2023-04-05T17:55:48.390Z,2.58
2023-04-05T17:58:20.010Z,2.33
2023-04-05T18:00:52.326Z,1.77
2023-04-05T18:03:24.318Z,2.40
2023-04-05T18:05:58.384Z,2.10
2023-04-05T18:08:30.357Z,2.53
2023-04-05T18:11:02.107Z,2.38
2023-04-05T18:13:33.698Z,2.10
2023-04-05T18:16:05.704Z,3.20
2023-04-05T18:18:37.301Z,2.40
2023-04-05T18:21:08.895Z,2.63
2023-04-05T18:23:40.639Z,2.60
2023-04-05T18:26:14.353Z,2.88
2023-04-05T18:28:46.628Z,3.30
2023-04-05T18:31:18.280Z,3.20
2023-04-05T18:33:49.829Z,3.33
2023-04-05T18:36:21.489Z,3.15
2023-04-05T18:39:01.746Z,2.97
2023-04-05T18:41:33.350Z,3.65
2023-04-05T18:44:04.929Z,3.60
2023-04-05T18:46:36.658Z,5.00
2023-04-05T18:49:08.700Z,4.38
2023-04-05T18:51:40.538Z,3.80
2023-04-05T18:54:13.823Z,3.87
2023-04-05T18:56:46.073Z,3.50
2023-04-05T18:59:17.823Z,4.35
2023-04-05T19:01:49.758Z,3.88
2023-04-05T19:04:21.386Z,4.20
2023-04-05T19:06:53.240Z,5.35
2023-04-05T19:09:26.245Z,3.75
2023-04-05T19:11:59.559Z,3.83
2023-04-05T19:14:31.278Z,3.38
2023-04-05T19:17:03.328Z,3.22
2023-04-05T19:19:35.292Z,3.38
2023-04-05T19:22:09.292Z,3.80
2023-04-05T19:24:40.928Z,3.65
2023-04-05T19:27:12.592Z,3.72
2023-04-05T19:29:44.289Z,4.43
2023-04-05T19:32:16.004Z,4.07
2023-04-05T19:34:49.674Z,3.88
2023-04-05T19:37:21.476Z,3.55
2023-04-05T19:39:54.465Z,4.32
2023-04-05T19:42:26.185Z,4.57
2023-04-05T19:44:58.521Z,4.63
2023-04-05T19:50:01.832Z,4.72
2023-04-05T19:52:45.842Z,5.75
2023-04-05T19:55:31.163Z,5.28
2023-04-05T19:58:06.781Z,4.88
2023-04-05T20:00:52.084Z,5.38
2023-04-05T20:06:06.195Z,4.90
2023-04-05T20:08:43.921Z,4.97
2023-04-05T20:11:20.774Z,5.80
2023-04-05T20:13:57.139Z,5.13
2023-04-05T20:16:30.694Z,7.35
2023-04-05T20:19:09.958Z,7.18
2023-04-05T20:21:49.317Z,8.10
2023-04-05T20:24:22.055Z,7.72
2023-04-05T20:26:55.078Z,8.60
2023-04-05T20:29:33.353Z,7.18
2023-04-05T20:32:05.874Z,8.23
2023-04-05T20:34:43.696Z,7.85
2023-04-05T20:37:15.867Z,7.70
2023-04-05T20:39:47.430Z,7.22
2023-04-05T20:42:19.029Z,7.23
2023-04-05T20:44:50.775Z,6.17
2023-04-05T20:47:22.345Z,6.00
2023-04-05T20:49:54.056Z,18.88
2023-04-05T20:52:26.814Z,10.63
2023-04-05T20:54:58.418Z,9.88
2023-04-05T20:57:29.976Z,8.27
2023-04-05T21:00:02.165Z,7.33
2023-04-05T21:02:34.462Z,6.22
2023-04-05T21:05:06.391Z,6.35
2023-04-05T21:07:38.422Z,5.80
2023-04-05T21:10:10.432Z,6.57
2023-04-05T21:12:42.268Z,6.82
2023-04-05T21:15:13.799Z,7.03
2023-04-05T21:17:45.663Z,8.03
2023-04-05T21:20:17.273Z,7.18
2023-04-05T21:22:48.891Z,6.65
2023-04-05T21:25:20.732Z,6.50
2023-04-05T21:27:52.392Z,5.85
2023-04-05T21:30:23.983Z,6.32
2023-04-05T21:32:55.875Z,6.37
2023-04-05T21:35:27.601Z,6.10
2023-04-05T21:37:59.278Z,6.28
2023-04-05T21:40:31.732Z,5.68
2023-04-05T21:45:34.916Z,5.88
2023-04-05T21:48:06.604Z,5.93
2023-04-05T21:50:38.341Z,5.75
2023-04-05T21:53:09.933Z,4.90
2023-04-05T21:55:41.476Z,4.87
2023-04-05T21:58:13.280Z,5.83
2023-04-05T22:00:44.911Z,5.60
2023-04-05T22:03:16.602Z,5.22
2023-04-05T22:05:48.212Z,5.13
2023-04-05T22:08:19.838Z,6.07
2023-04-05T22:10:52.164Z,5.60
2023-04-05T22:13:23.730Z,5.68
2023-04-05T22:15:55.291Z,5.27
2023-04-05T22:18:28.925Z,5.63
2023-04-05T22:21:00.698Z,6.10
2023-04-05T22:23:32.398Z,5.22
2023-04-05T22:26:04.017Z,5.45
2023-04-05T22:28:35.630Z,6.13
2023-04-05T22:31:08.256Z,5.50
2023-04-05T22:33:39.840Z,6.07
2023-04-05T22:36:11.404Z,5.07
2023-04-05T22:38:43.013Z,5.53
2023-04-05T22:41:14.698Z,5.50
2023-04-05T22:43:46.370Z,5.72
2023-04-05T22:46:19.068Z,5.25
2023-04-05T22:48:51.688Z,4.65
2023-04-05T22:51:23.280Z,5.07
2023-04-05T22:53:55.015Z,5.20
2023-04-05T22:56:26.557Z,5.10
2023-04-05T22:58:58.225Z,5.37
2023-04-05T23:01:29.862Z,4.85
2023-04-05T23:04:01.647Z,5.05
2023-04-05T23:06:33.194Z,4.93
2023-04-05T23:09:05.545Z,5.67
2023-04-05T23:14:08.904Z,5.00
2023-04-05T23:19:13.181Z,6.07
2023-04-05T23:21:44.729Z,4.50
2023-04-05T23:24:16.349Z,4.37
2023-04-05T23:26:47.946Z,4.40
2023-04-05T23:29:19.646Z,4.60
2023-04-05T23:31:53.572Z,3.80
2023-04-05T23:34:25.371Z,4.00
2023-04-05T23:36:56.989Z,3.55
2023-04-05T23:39:28.604Z,4.28
2023-04-05T23:42:01.213Z,4.30
2023-04-05T23:44:32.923Z,4.63
2023-04-05T23:47:05.060Z,5.32
2023-04-05T23:49:36.685Z,5.40
2023-04-05T23:52:08.296Z,5.63
2023-04-05T23:54:39.949Z,5.90
2023-04-05T23:57:11.740Z,5.15
2023-04-05T23:59:43.484Z,4.18
